sensor_id;sensor_type;location;lat;lon;timestamp;pressure;altitude;pressure_sealevel;temperature;humidity
61345;BME280;47216;42.656;23.232;2023-07-30T00:00:06;93770.16;;;20.03;61.11
61345;BME280;47216;42.656;23.232;2023-07-30T00:02:33;93769.06;;;19.95;61.18
61345;BME280;47216;42.656;23.232;2023-07-30T00:05:00;93778.22;;;19.89;60.80
61345;BME280;47216;42.656;23.232;2023-07-30T00:07:26;93769.63;;;19.75;61.13
61345;BME280;47216;42.656;23.232;2023-07-30T00:09:54;93774.53;;;19.67;61.20
61345;BME280;47216;42.656;23.232;2023-07-30T00:12:21;93763.63;;;19.60;61.28
61345;BME280;47216;42.656;23.232;2023-07-30T00:14:48;93769.63;;;19.43;61.77
61345;BME280;47216;42.656;23.232;2023-07-30T00:17:15;93768.63;;;19.30;62.03
61345;BME280;47216;42.656;23.232;2023-07-30T00:19:41;93766.59;;;19.27;62.16
61345;BME280;47216;42.656;23.232;2023-07-30T00:22:08;93769.53;;;19.26;62.47
61345;BME280;47216;42.656;23.232;2023-07-30T00:24:35;93771.41;;;19.25;62.88
61345;BME280;47216;42.656;23.232;2023-07-30T00:27:03;93763.47;;;19.25;62.85
61345;BME280;47216;42.656;23.232;2023-07-30T00:29:30;93758.31;;;19.20;62.90
61345;BME280;47216;42.656;23.232;2023-07-30T00:31:57;93754.88;;;19.20;62.61
61345;BME280;47216;42.656;23.232;2023-07-30T00:34:24;93751.72;;;19.09;62.48
61345;BME280;47216;42.656;23.232;2023-07-30T00:36:51;93753.13;;;19.06;62.75
61345;BME280;47216;42.656;23.232;2023-07-30T00:39:17;93748.59;;;19.07;63.44
61345;BME280;47216;42.656;23.232;2023-07-30T00:41:44;93749.66;;;19.06;63.19
61345;BME280;47216;42.656;23.232;2023-07-30T00:44:13;93744.81;;;18.99;63.18
61345;BME280;47216;42.656;23.232;2023-07-30T00:46:40;93747.16;;;19.01;63.26
61345;BME280;47216;42.656;23.232;2023-07-30T00:49:07;93752.50;;;19.09;63.35
61345;BME280;47216;42.656;23.232;2023-07-30T00:51:34;93749.66;;;19.06;62.98
61345;BME280;47216;42.656;23.232;2023-07-30T00:54:01;93748.75;;;19.10;62.84
61345;BME280;47216;42.656;23.232;2023-07-30T00:56:28;93738.50;;;19.09;62.85
61345;BME280;47216;42.656;23.232;2023-07-30T00:58:55;93745.22;;;19.15;62.97
61345;BME280;47216;42.656;23.232;2023-07-30T01:01:23;93749.25;;;19.13;62.36
61345;BME280;47216;42.656;23.232;2023-07-30T01:03:50;93746.91;;;19.11;62.48
61345;BME280;47216;42.656;23.232;2023-07-30T01:06:17;93752.22;;;19.11;62.64
61345;BME280;47216;42.656;23.232;2023-07-30T01:08:45;93755.44;;;19.08;62.96
61345;BME280;47216;42.656;23.232;2023-07-30T01:11:12;93752.97;;;19.12;62.90
61345;BME280;47216;42.656;23.232;2023-07-30T01:13:41;93756.88;;;19.14;62.48
61345;BME280;47216;42.656;23.232;2023-07-30T01:16:09;93753.75;;;19.12;62.75
61345;BME280;47216;42.656;23.232;2023-07-30T01:18:37;93757.03;;;19.18;62.44
61345;BME280;47216;42.656;23.232;2023-07-30T01:21:06;93760.59;;;19.13;62.30
61345;BME280;47216;42.656;23.232;2023-07-30T01:23:32;93750.81;;;19.14;62.31
61345;BME280;47216;42.656;23.232;2023-07-30T01:26:03;93755.91;;;19.10;62.07
61345;BME280;47216;42.656;23.232;2023-07-30T01:28:36;93748.75;;;19.10;62.26
61345;BME280;47216;42.656;23.232;2023-07-30T01:31:05;93751.72;;;19.09;62.37
61345;BME280;47216;42.656;23.232;2023-07-30T01:33:33;93754.38;;;19.09;62.44
61345;BME280;47216;42.656;23.232;2023-07-30T01:36:00;93759.31;;;19.02;62.83
61345;BME280;47216;42.656;23.232;2023-07-30T01:38:29;93746.44;;;19.09;62.78
61345;BME280;47216;42.656;23.232;2023-07-30T01:40:56;93757.00;;;19.09;62.29
61345;BME280;47216;42.656;23.232;2023-07-30T01:43:23;93758.06;;;19.08;62.20
61345;BME280;47216;42.656;23.232;2023-07-30T01:45:50;93756.19;;;19.00;62.66
61345;BME280;47216;42.656;23.232;2023-07-30T01:48:16;93768.28;;;19.01;62.60
61345;BME280;47216;42.656;23.232;2023-07-30T01:50:43;93760.50;;;18.96;62.63
61345;BME280;47216;42.656;23.232;2023-07-30T01:53:12;93761.47;;;19.00;62.43
61345;BME280;47216;42.656;23.232;2023-07-30T01:55:40;93768.59;;;18.99;62.62
61345;BME280;47216;42.656;23.232;2023-07-30T01:58:09;93769.06;;;19.01;62.78
61345;BME280;47216;42.656;23.232;2023-07-30T02:00:35;93769.06;;;19.01;63.21
61345;BME280;47216;42.656;23.232;2023-07-30T02:03:02;93767.81;;;18.99;63.07
61345;BME280;47216;42.656;23.232;2023-07-30T02:05:29;93773.72;;;18.96;63.02
61345;BME280;47216;42.656;23.232;2023-07-30T02:07:56;93769.50;;;18.95;63.05
61345;BME280;47216;42.656;23.232;2023-07-30T02:10:24;93767.16;;;18.93;63.35
61345;BME280;47216;42.656;23.232;2023-07-30T02:12:52;93770.22;;;18.86;63.46
61345;BME280;47216;42.656;23.232;2023-07-30T02:15:19;93762.91;;;18.83;63.39
61345;BME280;47216;42.656;23.232;2023-07-30T02:17:46;93775.03;;;18.84;63.00
61345;BME280;47216;42.656;23.232;2023-07-30T02:20:12;93775.94;;;18.80;63.54
61345;BME280;47216;42.656;23.232;2023-07-30T02:22:39;93769.16;;;18.74;63.90
61345;BME280;47216;42.656;23.232;2023-07-30T02:25:06;93767.56;;;18.64;63.90
61345;BME280;47216;42.656;23.232;2023-07-30T02:27:33;93770.59;;;18.57;63.89
61345;BME280;47216;42.656;23.232;2023-07-30T02:30:01;93769.34;;;18.55;64.49
61345;BME280;47216;42.656;23.232;2023-07-30T02:32:28;93777.28;;;18.55;64.22
61345;BME280;47216;42.656;23.232;2023-07-30T02:34:55;93777.50;;;18.44;64.17
61345;BME280;47216;42.656;23.232;2023-07-30T02:37:22;93770.06;;;18.46;64.11
61345;BME280;47216;42.656;23.232;2023-07-30T02:39:48;93783.38;;;18.41;64.41
61345;BME280;47216;42.656;23.232;2023-07-30T02:42:15;93785.31;;;18.50;64.44
61345;BME280;47216;42.656;23.232;2023-07-30T02:44:42;93781.56;;;18.51;63.92
61345;BME280;47216;42.656;23.232;2023-07-30T02:47:10;93788.91;;;18.54;64.41
61345;BME280;47216;42.656;23.232;2023-07-30T02:49:36;93778.84;;;18.56;63.73
61345;BME280;47216;42.656;23.232;2023-07-30T02:52:04;93783.16;;;18.52;63.77
61345;BME280;47216;42.656;23.232;2023-07-30T02:54:30;93776.19;;;18.56;64.09
61345;BME280;47216;42.656;23.232;2023-07-30T02:56:57;93781.56;;;18.51;64.07
61345;BME280;47216;42.656;23.232;2023-07-30T02:59:24;93788.16;;;18.53;64.49
61345;BME280;47216;42.656;23.232;2023-07-30T03:01:51;93781.13;;;18.48;64.31
61345;BME280;47216;42.656;23.232;2023-07-30T03:04:19;93782.19;;;18.47;64.11
61345;BME280;47216;42.656;23.232;2023-07-30T03:06:45;93785.22;;;18.41;64.04
61345;BME280;47216;42.656;23.232;2023-07-30T03:09:12;93793.94;;;18.41;64.38
61345;BME280;47216;42.656;23.232;2023-07-30T03:11:39;93795.50;;;18.42;64.22
61345;BME280;47216;42.656;23.232;2023-07-30T03:14:06;93794.53;;;18.38;64.52
61345;BME280;47216;42.656;23.232;2023-07-30T03:16:32;93787.50;;;18.34;64.48
61345;BME280;47216;42.656;23.232;2023-07-30T03:18:59;93786.63;;;18.24;64.12
61345;BME280;47216;42.656;23.232;2023-07-30T03:21:27;93783.09;;;18.29;64.32
61345;BME280;47216;42.656;23.232;2023-07-30T03:23:54;93784.19;;;18.28;64.34
61345;BME280;47216;42.656;23.232;2023-07-30T03:26:20;93784.38;;;18.32;64.08
61345;BME280;47216;42.656;23.232;2023-07-30T03:28:47;93779.88;;;18.32;64.19
61345;BME280;47216;42.656;23.232;2023-07-30T03:31:14;93780.47;;;18.29;64.17
61345;BME280;47216;42.656;23.232;2023-07-30T03:33:41;93781.66;;;18.23;64.16
61345;BME280;47216;42.656;23.232;2023-07-30T03:36:09;93782.13;;;18.25;64.12
61345;BME280;47216;42.656;23.232;2023-07-30T03:38:37;93785.56;;;18.25;64.16
61345;BME280;47216;42.656;23.232;2023-07-30T03:41:04;93785.75;;;18.29;64.08
61345;BME280;47216;42.656;23.232;2023-07-30T03:43:31;93783.41;;;18.27;64.09
61345;BME280;47216;42.656;23.232;2023-07-30T03:45:58;93785.75;;;18.29;64.09
61345;BME280;47216;42.656;23.232;2023-07-30T03:48:24;93787.78;;;18.32;63.99
61345;BME280;47216;42.656;23.232;2023-07-30T03:50:52;93786.13;;;18.36;64.13
61345;BME280;47216;42.656;23.232;2023-07-30T03:53:18;93790.34;;;18.37;64.02
61345;BME280;47216;42.656;23.232;2023-07-30T03:55:46;93788.56;;;18.46;63.42
61345;BME280;47216;42.656;23.232;2023-07-30T03:58:13;93794.78;;;18.51;63.76
61345;BME280;47216;42.656;23.232;2023-07-30T04:00:40;93798.22;;;18.51;63.64
61345;BME280;47216;42.656;23.232;2023-07-30T04:03:07;93786.28;;;18.54;63.74
61345;BME280;47216;42.656;23.232;2023-07-30T04:05:34;93793.00;;;18.60;63.59
61345;BME280;47216;42.656;23.232;2023-07-30T04:08:01;93794.84;;;18.59;63.81
61345;BME280;47216;42.656;23.232;2023-07-30T04:10:27;93795.06;;;18.63;63.46
61345;BME280;47216;42.656;23.232;2023-07-30T04:12:55;93794.94;;;18.68;63.89
61345;BME280;47216;42.656;23.232;2023-07-30T04:15:22;93795.03;;;18.77;64.03
61345;BME280;47216;42.656;23.232;2023-07-30T04:17:49;93799.78;;;18.88;63.86
61345;BME280;47216;42.656;23.232;2023-07-30T04:20:16;93802.91;;;18.91;63.11
61345;BME280;47216;42.656;23.232;2023-07-30T04:22:43;93795.81;;;19.00;63.57
61345;BME280;47216;42.656;23.232;2023-07-30T04:25:10;93803.13;;;19.03;63.62
61345;BME280;47216;42.656;23.232;2023-07-30T04:27:37;93802.53;;;19.06;63.47
61345;BME280;47216;42.656;23.232;2023-07-30T04:30:06;93799.94;;;19.15;63.84
61345;BME280;47216;42.656;23.232;2023-07-30T04:32:33;93802.28;;;19.16;63.18
61345;BME280;47216;42.656;23.232;2023-07-30T04:35:00;93805.41;;;19.18;62.91
61345;BME280;47216;42.656;23.232;2023-07-30T04:37:27;93799.38;;;19.26;63.41
61345;BME280;47216;42.656;23.232;2023-07-30T04:39:54;93803.00;;;19.30;63.37
61345;BME280;47216;42.656;23.232;2023-07-30T04:42:21;93802.22;;;19.30;63.77
61345;BME280;47216;42.656;23.232;2023-07-30T04:44:48;93803.06;;;19.39;63.37
61345;BME280;47216;42.656;23.232;2023-07-30T04:47:16;93807.09;;;19.45;63.51
61345;BME280;47216;42.656;23.232;2023-07-30T04:49:42;93806.81;;;19.47;63.02
61345;BME280;47216;42.656;23.232;2023-07-30T04:52:09;93806.56;;;19.57;63.18
61345;BME280;47216;42.656;23.232;2023-07-30T04:54:36;93809.22;;;19.66;62.97
61345;BME280;47216;42.656;23.232;2023-07-30T04:57:04;93806.22;;;19.81;62.79
61345;BME280;47216;42.656;23.232;2023-07-30T04:59:31;93805.78;;;19.88;63.60
61345;BME280;47216;42.656;23.232;2023-07-30T05:01:59;93799.25;;;19.94;63.43
61345;BME280;47216;42.656;23.232;2023-07-30T05:04:27;93799.59;;;20.01;62.88
61345;BME280;47216;42.656;23.232;2023-07-30T05:06:53;93803.34;;;20.09;62.71
61345;BME280;47216;42.656;23.232;2023-07-30T05:09:20;93795.09;;;20.19;62.61
61345;BME280;47216;42.656;23.232;2023-07-30T05:11:47;93797.47;;;20.29;62.90
61345;BME280;47216;42.656;23.232;2023-07-30T05:14:14;93792.50;;;20.45;63.08
61345;BME280;47216;42.656;23.232;2023-07-30T05:16:41;93801.84;;;20.51;61.35
61345;BME280;47216;42.656;23.232;2023-07-30T05:19:07;93796.75;;;20.64;61.49
61345;BME280;47216;42.656;23.232;2023-07-30T05:21:36;93790.38;;;20.82;61.43
61345;BME280;47216;42.656;23.232;2023-07-30T05:24:03;93792.69;;;20.92;60.52
61345;BME280;47216;42.656;23.232;2023-07-30T05:26:30;93789.88;;;21.06;60.41
61345;BME280;47216;42.656;23.232;2023-07-30T05:28:56;93789.50;;;21.25;60.17
61345;BME280;47216;42.656;23.232;2023-07-30T05:31:23;93797.47;;;21.43;59.89
61345;BME280;47216;42.656;23.232;2023-07-30T05:33:50;93798.34;;;21.64;59.46
61345;BME280;47216;42.656;23.232;2023-07-30T05:36:17;93798.75;;;21.84;59.15
61345;BME280;47216;42.656;23.232;2023-07-30T05:38:45;93799.41;;;22.01;58.52
61345;BME280;47216;42.656;23.232;2023-07-30T05:41:11;93802.78;;;22.19;57.73
61345;BME280;47216;42.656;23.232;2023-07-30T05:43:38;93798.94;;;22.38;57.29
61345;BME280;47216;42.656;23.232;2023-07-30T05:46:05;93802.31;;;22.47;57.04
61345;BME280;47216;42.656;23.232;2023-07-30T05:48:31;93801.28;;;22.60;56.39
61345;BME280;47216;42.656;23.232;2023-07-30T05:50:58;93804.91;;;22.77;56.88
61345;BME280;47216;42.656;23.232;2023-07-30T05:53:25;93798.63;;;23.02;56.50
61345;BME280;47216;42.656;23.232;2023-07-30T05:55:53;93807.03;;;23.25;55.69
61345;BME280;47216;42.656;23.232;2023-07-30T05:58:20;93802.50;;;23.38;55.83
61345;BME280;47216;42.656;23.232;2023-07-30T06:00:47;93802.88;;;23.49;55.28
61345;BME280;47216;42.656;23.232;2023-07-30T06:03:14;93809.56;;;23.55;55.24
61345;BME280;47216;42.656;23.232;2023-07-30T06:05:40;93810.69;;;23.66;54.04
61345;BME280;47216;42.656;23.232;2023-07-30T06:08:08;93809.06;;;23.74;53.33
61345;BME280;47216;42.656;23.232;2023-07-30T06:10:35;93805.41;;;23.79;53.90
61345;BME280;47216;42.656;23.232;2023-07-30T06:13:04;93813.50;;;23.95;53.43
61345;BME280;47216;42.656;23.232;2023-07-30T06:15:32;93802.31;;;24.01;52.94
61345;BME280;47216;42.656;23.232;2023-07-30T06:18:00;93805.28;;;24.12;53.34
61345;BME280;47216;42.656;23.232;2023-07-30T06:20:27;93808.63;;;24.21;53.15
61345;BME280;47216;42.656;23.232;2023-07-30T06:22:54;93800.19;;;24.31;53.17
61345;BME280;47216;42.656;23.232;2023-07-30T06:25:20;93809.94;;;24.40;52.05
61345;BME280;47216;42.656;23.232;2023-07-30T06:27:47;93809.28;;;24.43;51.61
61345;BME280;47216;42.656;23.232;2023-07-30T06:30:15;93806.63;;;24.55;51.79
61345;BME280;47216;42.656;23.232;2023-07-30T06:32:42;93805.03;;;24.66;51.44
61345;BME280;47216;42.656;23.232;2023-07-30T06:35:09;93803.03;;;24.76;51.51
61345;BME280;47216;42.656;23.232;2023-07-30T06:37:36;93798.00;;;24.86;51.27
61345;BME280;47216;42.656;23.232;2023-07-30T06:40:03;93793.19;;;24.92;51.38
61345;BME280;47216;42.656;23.232;2023-07-30T06:42:31;93795.56;;;25.09;51.57
61345;BME280;47216;42.656;23.232;2023-07-30T06:44:58;93781.28;;;25.17;50.74
61345;BME280;47216;42.656;23.232;2023-07-30T06:47:26;93783.66;;;25.19;50.04
61345;BME280;47216;42.656;23.232;2023-07-30T06:49:53;93781.50;;;25.25;50.08
61345;BME280;47216;42.656;23.232;2023-07-30T06:52:20;93781.69;;;25.32;50.54
61345;BME280;47216;42.656;23.232;2023-07-30T06:54:46;93777.22;;;25.36;50.50
61345;BME280;47216;42.656;23.232;2023-07-30T06:57:13;93769.94;;;25.49;50.74
61345;BME280;47216;42.656;23.232;2023-07-30T06:59:40;93776.91;;;25.53;50.25
61345;BME280;47216;42.656;23.232;2023-07-30T07:02:07;93777.16;;;25.64;50.28
61345;BME280;47216;42.656;23.232;2023-07-30T07:04:35;93767.69;;;25.67;49.06
61345;BME280;47216;42.656;23.232;2023-07-30T07:07:02;93772.59;;;25.65;48.91
61345;BME280;47216;42.656;23.232;2023-07-30T07:09:29;93783.66;;;25.79;48.80
61345;BME280;47216;42.656;23.232;2023-07-30T07:11:56;93770.44;;;25.86;48.31
61345;BME280;47216;42.656;23.232;2023-07-30T07:14:22;93763.06;;;25.95;48.09
61345;BME280;47216;42.656;23.232;2023-07-30T07:16:49;93764.34;;;26.02;47.76
61345;BME280;47216;42.656;23.232;2023-07-30T07:19:16;93762.00;;;26.16;47.67
61345;BME280;47216;42.656;23.232;2023-07-30T07:21:44;93752.41;;;26.15;46.58
61345;BME280;47216;42.656;23.232;2023-07-30T07:24:11;93756.66;;;26.16;46.92
61345;BME280;47216;42.656;23.232;2023-07-30T07:26:37;93756.44;;;26.25;47.44
61345;BME280;47216;42.656;23.232;2023-07-30T07:29:04;93752.72;;;26.29;46.67
61345;BME280;47216;42.656;23.232;2023-07-30T07:31:31;93746.69;;;26.32;46.76
61345;BME280;47216;42.656;23.232;2023-07-30T07:33:58;93754.28;;;26.30;46.41
61345;BME280;47216;42.656;23.232;2023-07-30T07:36:24;93745.84;;;26.28;46.28
61345;BME280;47216;42.656;23.232;2023-07-30T07:38:52;93750.63;;;26.38;46.04
61345;BME280;47216;42.656;23.232;2023-07-30T07:41:19;93750.19;;;26.36;47.32
61345;BME280;47216;42.656;23.232;2023-07-30T07:43:47;93743.41;;;26.39;47.53
61345;BME280;47216;42.656;23.232;2023-07-30T07:46:14;93733.69;;;26.50;46.85
61345;BME280;47216;42.656;23.232;2023-07-30T07:48:42;93741.13;;;26.57;45.85
61345;BME280;47216;42.656;23.232;2023-07-30T07:51:09;93741.25;;;26.64;45.56
61345;BME280;47216;42.656;23.232;2023-07-30T07:53:37;93745.91;;;26.67;46.21
61345;BME280;47216;42.656;23.232;2023-07-30T07:56:05;93737.75;;;26.79;45.53
61345;BME280;47216;42.656;23.232;2023-07-30T07:58:32;93737.19;;;26.90;45.23
61345;BME280;47216;42.656;23.232;2023-07-30T08:00:59;93741.13;;;26.96;45.11
61345;BME280;47216;42.656;23.232;2023-07-30T08:03:26;93737.34;;;26.97;45.57
61345;BME280;47216;42.656;23.232;2023-07-30T08:05:53;93737.38;;;27.00;45.56
61345;BME280;47216;42.656;23.232;2023-07-30T08:08:19;93731.50;;;27.14;45.46
61345;BME280;47216;42.656;23.232;2023-07-30T08:10:46;93728.53;;;27.19;44.33
61345;BME280;47216;42.656;23.232;2023-07-30T08:13:14;93726.84;;;27.31;43.47
61345;BME280;47216;42.656;23.232;2023-07-30T08:15:41;93724.72;;;27.40;44.35
61345;BME280;47216;42.656;23.232;2023-07-30T08:18:08;93719.13;;;27.49;44.43
61345;BME280;47216;42.656;23.232;2023-07-30T08:20:35;93725.88;;;27.62;43.28
61345;BME280;47216;42.656;23.232;2023-07-30T08:23:01;93728.22;;;27.67;43.53
61345;BME280;47216;42.656;23.232;2023-07-30T08:25:28;93732.41;;;27.64;43.82
61345;BME280;47216;42.656;23.232;2023-07-30T08:27:55;93726.84;;;27.77;43.83
61345;BME280;47216;42.656;23.232;2023-07-30T08:30:23;93713.44;;;28.00;42.63
61345;BME280;47216;42.656;23.232;2023-07-30T08:32:50;93719.19;;;27.98;42.51
61345;BME280;47216;42.656;23.232;2023-07-30T08:35:16;93715.66;;;27.94;42.40
61345;BME280;47216;42.656;23.232;2023-07-30T08:37:43;93706.22;;;28.04;41.13
61345;BME280;47216;42.656;23.232;2023-07-30T08:40:11;93708.59;;;28.09;41.28
61345;BME280;47216;42.656;23.232;2023-07-30T08:42:37;93700.88;;;28.04;41.69
61345;BME280;47216;42.656;23.232;2023-07-30T08:45:06;93702.72;;;28.26;41.34
61345;BME280;47216;42.656;23.232;2023-07-30T08:47:35;93703.25;;;28.39;40.49
61345;BME280;47216;42.656;23.232;2023-07-30T08:50:02;93696.97;;;28.55;40.59
61345;BME280;47216;42.656;23.232;2023-07-30T08:52:29;93699.97;;;28.49;41.33
61345;BME280;47216;42.656;23.232;2023-07-30T08:54:57;93703.50;;;28.57;40.64
61345;BME280;47216;42.656;23.232;2023-07-30T08:57:28;93706.41;;;28.75;38.85
61345;BME280;47216;42.656;23.232;2023-07-30T09:00:01;93697.66;;;28.82;39.22
61345;BME280;47216;42.656;23.232;2023-07-30T09:02:31;93696.88;;;28.81;38.44
61345;BME280;47216;42.656;23.232;2023-07-30T09:05:01;93697.34;;;28.90;38.47
61345;BME280;47216;42.656;23.232;2023-07-30T09:07:28;93697.75;;;28.92;39.13
61345;BME280;47216;42.656;23.232;2023-07-30T09:09:55;93689.56;;;29.12;37.36
61345;BME280;47216;42.656;23.232;2023-07-30T09:12:26;93686.50;;;29.14;37.75
61345;BME280;47216;42.656;23.232;2023-07-30T09:14:53;93694.25;;;29.22;38.11
61345;BME280;47216;42.656;23.232;2023-07-30T09:17:19;93690.50;;;29.30;37.74
61345;BME280;47216;42.656;23.232;2023-07-30T09:19:47;93685.53;;;29.32;36.55
61345;BME280;47216;42.656;23.232;2023-07-30T09:22:24;93684.44;;;29.37;35.20
61345;BME280;47216;42.656;23.232;2023-07-30T09:24:51;93680.22;;;29.40;35.68
61345;BME280;47216;42.656;23.232;2023-07-30T09:27:20;93688.69;;;29.42;35.84
61345;BME280;47216;42.656;23.232;2023-07-30T09:29:51;93684.16;;;29.53;35.78
61345;BME280;47216;42.656;23.232;2023-07-30T09:32:19;93682.66;;;29.56;36.88
61345;BME280;47216;42.656;23.232;2023-07-30T09:34:46;93681.25;;;29.69;36.13
61345;BME280;47216;42.656;23.232;2023-07-30T09:37:13;93674.41;;;29.79;34.76
61345;BME280;47216;42.656;23.232;2023-07-30T09:39:41;93664.41;;;29.76;34.38
61345;BME280;47216;42.656;23.232;2023-07-30T09:42:08;93665.19;;;29.80;36.40
61345;BME280;47216;42.656;23.232;2023-07-30T09:44:37;93662.94;;;29.89;34.06
61345;BME280;47216;42.656;23.232;2023-07-30T09:47:04;93666.81;;;29.88;35.69
61345;BME280;47216;42.656;23.232;2023-07-30T09:49:32;93652.63;;;29.98;34.48
61345;BME280;47216;42.656;23.232;2023-07-30T09:52:00;93656.13;;;30.02;35.32
61345;BME280;47216;42.656;23.232;2023-07-30T09:54:29;93661.50;;;30.06;34.23
61345;BME280;47216;42.656;23.232;2023-07-30T09:56:58;93655.44;;;30.16;33.21
61345;BME280;47216;42.656;23.232;2023-07-30T09:59:25;93648.41;;;29.97;33.59
61345;BME280;47216;42.656;23.232;2023-07-30T10:01:52;93650.34;;;30.00;33.53
61345;BME280;47216;42.656;23.232;2023-07-30T10:04:21;93651.50;;;30.03;34.57
61345;BME280;47216;42.656;23.232;2023-07-30T10:06:53;93647.72;;;30.14;34.56
61345;BME280;47216;42.656;23.232;2023-07-30T10:09:23;93645.84;;;30.22;34.33
61345;BME280;47216;42.656;23.232;2023-07-30T10:11:52;93636.75;;;30.45;32.86
61345;BME280;47216;42.656;23.232;2023-07-30T10:14:22;93638.66;;;30.48;33.31
61345;BME280;47216;42.656;23.232;2023-07-30T10:16:52;93634.06;;;30.45;34.95
61345;BME280;47216;42.656;23.232;2023-07-30T10:19:22;93627.91;;;30.44;33.23
61345;BME280;47216;42.656;23.232;2023-07-30T10:21:49;93625.63;;;30.53;33.42
61345;BME280;47216;42.656;23.232;2023-07-30T10:24:15;93619.50;;;30.64;34.67
61345;BME280;47216;42.656;23.232;2023-07-30T10:26:42;93618.38;;;30.75;33.89
61345;BME280;47216;42.656;23.232;2023-07-30T10:29:19;93611.91;;;30.87;33.94
61345;BME280;47216;42.656;23.232;2023-07-30T10:31:52;93608.84;;;30.92;33.96
61345;BME280;47216;42.656;23.232;2023-07-30T10:34:19;93606.91;;;30.96;33.73
61345;BME280;47216;42.656;23.232;2023-07-30T10:36:47;93604.97;;;31.01;33.32
61345;BME280;47216;42.656;23.232;2023-07-30T10:39:15;93597.28;;;31.03;32.96
61345;BME280;47216;42.656;23.232;2023-07-30T10:41:43;93601.91;;;31.09;33.25
61345;BME280;47216;42.656;23.232;2023-07-30T10:44:24;93592.69;;;31.21;33.44
61345;BME280;47216;42.656;23.232;2023-07-30T10:46:53;93593.47;;;31.29;33.78
61345;BME280;47216;42.656;23.232;2023-07-30T10:49:20;93591.94;;;31.31;32.42
61345;BME280;47216;42.656;23.232;2023-07-30T10:51:47;93584.97;;;31.37;32.83
61345;BME280;47216;42.656;23.232;2023-07-30T10:54:14;93583.84;;;31.31;33.48
61345;BME280;47216;42.656;23.232;2023-07-30T10:56:42;93577.28;;;31.39;34.08
61345;BME280;47216;42.656;23.232;2023-07-30T10:59:11;93571.16;;;31.50;33.32
61345;BME280;47216;42.656;23.232;2023-07-30T11:01:38;93569.97;;;31.58;31.55
61345;BME280;47216;42.656;23.232;2023-07-30T11:04:09;93559.56;;;31.64;32.09
61345;BME280;47216;42.656;23.232;2023-07-30T11:06:37;93558.81;;;31.56;32.40
61345;BME280;47216;42.656;23.232;2023-07-30T11:09:04;93561.09;;;31.68;33.36
61345;BME280;47216;42.656;23.232;2023-07-30T11:11:31;93551.41;;;31.81;32.27
61345;BME280;47216;42.656;23.232;2023-07-30T11:13:58;93558.75;;;31.85;31.87
61345;BME280;47216;42.656;23.232;2023-07-30T11:16:25;93550.63;;;31.88;31.61
61345;BME280;47216;42.656;23.232;2023-07-30T11:18:52;93549.91;;;31.80;31.14
61345;BME280;47216;42.656;23.232;2023-07-30T11:21:20;93536.78;;;31.82;31.76
61345;BME280;47216;42.656;23.232;2023-07-30T11:23:47;93534.06;;;31.97;32.18
61345;BME280;47216;42.656;23.232;2023-07-30T11:26:15;93527.09;;;32.10;31.49
61345;BME280;47216;42.656;23.232;2023-07-30T11:28:43;93527.09;;;32.10;32.03
61345;BME280;47216;42.656;23.232;2023-07-30T11:31:11;93524.34;;;32.17;32.30
61345;BME280;47216;42.656;23.232;2023-07-30T11:33:40;93514.69;;;32.23;31.32
61345;BME280;47216;42.656;23.232;2023-07-30T11:36:08;93518.13;;;32.28;31.06
61345;BME280;47216;42.656;23.232;2023-07-30T11:38:38;93519.63;;;32.36;31.54
61345;BME280;47216;42.656;23.232;2023-07-30T11:41:05;93514.56;;;32.41;31.84
61345;BME280;47216;42.656;23.232;2023-07-30T11:43:36;93516.06;;;32.53;31.77
61345;BME280;47216;42.656;23.232;2023-07-30T11:46:07;93512.94;;;32.62;31.07
61345;BME280;47216;42.656;23.232;2023-07-30T11:48:34;93508.28;;;32.62;30.59
61345;BME280;47216;42.656;23.232;2023-07-30T11:51:02;93504.41;;;32.67;29.78
61345;BME280;47216;42.656;23.232;2023-07-30T11:53:46;93495.97;;;32.58;31.28
61345;BME280;47216;42.656;23.232;2023-07-30T11:56:20;93491.31;;;32.65;30.36
61345;BME280;47216;42.656;23.232;2023-07-30T11:58:48;93505.19;;;32.68;30.93
61345;BME280;47216;42.656;23.232;2023-07-30T12:01:15;93495.22;;;32.57;30.51
61345;BME280;47216;42.656;23.232;2023-07-30T12:03:42;93485.97;;;32.58;29.74
61345;BME280;47216;42.656;23.232;2023-07-30T12:06:09;93487.44;;;32.67;30.58
61345;BME280;47216;42.656;23.232;2023-07-30T12:08:37;93490.09;;;32.74;30.71
61345;BME280;47216;42.656;23.232;2023-07-30T12:11:08;93490.44;;;32.79;30.51
61345;BME280;47216;42.656;23.232;2023-07-30T12:13:42;93484.16;;;32.93;30.13
61345;BME280;47216;42.656;23.232;2023-07-30T12:16:09;93474.06;;;33.04;29.78
61345;BME280;47216;42.656;23.232;2023-07-30T12:18:37;93471.78;;;32.96;28.60
61345;BME280;47216;42.656;23.232;2023-07-30T12:21:05;93461.00;;;32.92;29.58
61345;BME280;47216;42.656;23.232;2023-07-30T12:23:33;93469.63;;;32.76;29.62
61345;BME280;47216;42.656;23.232;2023-07-30T12:26:01;93470.28;;;32.91;31.07
61345;BME280;47216;42.656;23.232;2023-07-30T12:28:32;93458.94;;;33.11;29.64
61345;BME280;47216;42.656;23.232;2023-07-30T12:30:59;93460.97;;;32.96;28.40
61345;BME280;47216;42.656;23.232;2023-07-30T12:33:26;93471.81;;;32.92;28.78
61345;BME280;47216;42.656;23.232;2023-07-30T12:35:53;93464.13;;;32.87;28.54
61345;BME280;47216;42.656;23.232;2023-07-30T12:38:20;93451.84;;;32.79;28.99
61345;BME280;47216;42.656;23.232;2023-07-30T12:40:46;93454.13;;;32.84;30.12
61345;BME280;47216;42.656;23.232;2023-07-30T12:43:13;93458.22;;;32.54;28.73
61345;BME280;47216;42.656;23.232;2023-07-30T12:45:41;93452.47;;;32.45;30.00
61345;BME280;47216;42.656;23.232;2023-07-30T12:48:08;93445.56;;;32.37;29.54
61345;BME280;47216;42.656;23.232;2023-07-30T12:50:35;93440.94;;;32.41;30.80